Terminal Aerodrome Forecast
Issued by NWS

Home | Current Version | Previous Version | Graphics & Text | Print | Product List | Glossary On
Versions: 1 2 3 4 5 6 7 8 9 10 11 12 13 14 15 16 17 18 19 20 21 22 23 24 25 26 27 28 29 30 31 32
000
FTUS43 KLOT 150532
TAFORD
TAF
KORD 150532Z 1506/1612 23009KT 1/2SM -DZ FG OVC003
      TEMPO 1506/1509 1/4SM -DZ FG VV002
     FM150900 23007KT 1/4SM -DZ FG OVC002
     FM151300 24007KT 3/4SM -DZ BR OVC003
     FM151800 26006KT 1 1/2SM -RA BR OVC004
     FM152300 32008KT 3SM BR OVC008
     FM160500 32014G19KT P6SM OVC010=

USA.gov is the U.S. government's official web portal to all federal, state and local government web resources and services.